Startpagina
METAR-TAF:

METAR-TAF

Vliegvelden :

Luchthaven Jakoetsk

Jakoetsk, Rusland

breedte: 62-01N, lengte: 129-43E, hoogte: 103 m

Actueel weer

Dit bericht is 29 minuten geleden gemaakt, om 23:30 UTC
Wind 4 kt uit het zuidwesten
Temperatuur 12°C
Vochtigheid 94%
Druk 1002 hPa
Zicht 10 km of meer
Verspreide wolken op 1000 ft
Gebroken wolken op 2000 ft, Cumulonimbus.

METAR: UEEE 172330Z 22002MPS 9999 SCT010 BKN020CB 12/11 Q1002 R23L/290155 NOSIG RMK QFE743

Tijdstip: 08:59 (23:59 UTC)

Verwachting

Dit bericht is 59 minuten geleden gemaakt, om 23:00 UTC
Verwachting geldig van 18 om 00 UTC tot 19 om 06 UTC
Wind 6 kt uit het westen met uitschieters tot 16 kt
Zicht 10 km of meer
Verspreide wolken op 1100 ft
Gebroken wolken op 2000 ft, Cumulonimbus.
lichte regenbuien
Tijdelijke
van 18 om 00 UTC tot 18 om 12 UTC
Wind 33 kt uit variabele richting
onweer, lichte regen

TAF: UEEE 172300Z 1800/1906 26003G08MPS 9999 -SHRA SCT011 BKN020CB TEMPO 1800/1812 VRB17MPS -TSRA

Waarnemingen en weersverwachtingen van meer dan 4000 vliegvelden (METAR en TAF).

De beschikbare stations zijn de gele en rode punten op de kaart.

Ga met uw muis naar het station om de naam te zien.

Klik dan om waarnemingen en weersverwachtingen te zien.

kaart wijzigen: klik op de groene knoppen met een zwart kruis om in te zoomen, op de groene knop met een streepje om uit te zoomen of op de groene pijlen voor aangrenzende kaarten.


METAR-TAF: